sensor_id;sensor_type;location;lat;lon;timestamp;P1;durP1;ratioP1;P2;durP2;ratioP2
61764;SDS011;50188;48.114;-1.388;2022-08-19T00:01:26;6.30;;;5.45;;
61764;SDS011;50188;48.114;-1.388;2022-08-19T00:03:54;6.38;;;5.30;;
61764;SDS011;50188;48.114;-1.388;2022-08-19T00:06:20;6.65;;;5.95;;
61764;SDS011;50188;48.114;-1.388;2022-08-19T00:08:46;5.80;;;5.30;;
61764;SDS011;50188;48.114;-1.388;2022-08-19T00:11:12;7.65;;;5.50;;
61764;SDS011;50188;48.114;-1.388;2022-08-19T00:13:41;5.68;;;5.20;;
61764;SDS011;50188;48.114;-1.388;2022-08-19T00:16:13;8.80;;;5.13;;
61764;SDS011;50188;48.114;-1.388;2022-08-19T00:18:39;5.10;;;4.68;;
61764;SDS011;50188;48.114;-1.388;2022-08-19T00:21:05;7.35;;;4.25;;
61764;SDS011;50188;48.114;-1.388;2022-08-19T00:23:33;5.90;;;3.90;;
61764;SDS011;50188;48.114;-1.388;2022-08-19T00:26:01;6.03;;;4.80;;
61764;SDS011;50188;48.114;-1.388;2022-08-19T00:28:27;5.88;;;4.18;;
61764;SDS011;50188;48.114;-1.388;2022-08-19T00:30:53;3.78;;;3.47;;
61764;SDS011;50188;48.114;-1.388;2022-08-19T00:33:19;8.32;;;5.05;;
61764;SDS011;50188;48.114;-1.388;2022-08-19T00:35:44;8.55;;;5.10;;
61764;SDS011;50188;48.114;-1.388;2022-08-19T00:38:10;6.20;;;4.45;;
61764;SDS011;50188;48.114;-1.388;2022-08-19T00:40:36;8.80;;;4.50;;
61764;SDS011;50188;48.114;-1.388;2022-08-19T00:43:07;4.43;;;3.70;;
61764;SDS011;50188;48.114;-1.388;2022-08-19T00:45:35;4.57;;;4.20;;
61764;SDS011;50188;48.114;-1.388;2022-08-19T00:48:01;4.00;;;3.70;;
61764;SDS011;50188;48.114;-1.388;2022-08-19T00:50:30;8.45;;;3.92;;
61764;SDS011;50188;48.114;-1.388;2022-08-19T00:52:57;6.40;;;3.83;;
61764;SDS011;50188;48.114;-1.388;2022-08-19T00:55:25;6.22;;;4.63;;
61764;SDS011;50188;48.114;-1.388;2022-08-19T00:57:58;4.40;;;3.22;;
61764;SDS011;50188;48.114;-1.388;2022-08-19T01:00:28;3.15;;;2.95;;
61764;SDS011;50188;48.114;-1.388;2022-08-19T01:02:55;4.28;;;3.33;;
61764;SDS011;50188;48.114;-1.388;2022-08-19T01:05:22;3.40;;;2.92;;
61764;SDS011;50188;48.114;-1.388;2022-08-19T01:07:52;3.35;;;2.75;;
61764;SDS011;50188;48.114;-1.388;2022-08-19T01:10:20;3.35;;;2.88;;
61764;SDS011;50188;48.114;-1.388;2022-08-19T01:12:49;2.15;;;2.05;;
61764;SDS011;50188;48.114;-1.388;2022-08-19T01:15:17;2.92;;;1.90;;
61764;SDS011;50188;48.114;-1.388;2022-08-19T01:17:46;4.93;;;2.70;;
61764;SDS011;50188;48.114;-1.388;2022-08-19T01:20:14;2.45;;;2.25;;
61764;SDS011;50188;48.114;-1.388;2022-08-19T01:22:49;2.53;;;2.30;;
61764;SDS011;50188;48.114;-1.388;2022-08-19T01:25:18;5.10;;;2.28;;
61764;SDS011;50188;48.114;-1.388;2022-08-19T01:30:19;4.30;;;2.05;;
61764;SDS011;50188;48.114;-1.388;2022-08-19T01:32:48;4.55;;;2.25;;
61764;SDS011;50188;48.114;-1.388;2022-08-19T01:35:15;1.65;;;1.55;;
61764;SDS011;50188;48.114;-1.388;2022-08-19T01:37:44;2.10;;;1.95;;
61764;SDS011;50188;48.114;-1.388;2022-08-19T01:40:17;2.63;;;2.00;;
61764;SDS011;50188;48.114;-1.388;2022-08-19T01:42:46;1.73;;;1.63;;
61764;SDS011;50188;48.114;-1.388;2022-08-19T01:45:20;2.42;;;2.22;;
61764;SDS011;50188;48.114;-1.388;2022-08-19T01:47:50;2.15;;;1.65;;
61764;SDS011;50188;48.114;-1.388;2022-08-19T01:50:16;1.92;;;1.70;;
61764;SDS011;50188;48.114;-1.388;2022-08-19T01:52:42;2.95;;;2.10;;
61764;SDS011;50188;48.114;-1.388;2022-08-19T01:55:11;3.95;;;2.60;;
61764;SDS011;50188;48.114;-1.388;2022-08-19T01:57:41;4.57;;;2.55;;
61764;SDS011;50188;48.114;-1.388;2022-08-19T02:00:11;3.88;;;3.08;;
61764;SDS011;50188;48.114;-1.388;2022-08-19T02:02:40;4.50;;;2.67;;
61764;SDS011;50188;48.114;-1.388;2022-08-19T02:05:07;6.20;;;2.67;;
61764;SDS011;50188;48.114;-1.388;2022-08-19T02:07:33;2.47;;;2.28;;
61764;SDS011;50188;48.114;-1.388;2022-08-19T02:10:03;4.88;;;2.17;;
61764;SDS011;50188;48.114;-1.388;2022-08-19T02:12:31;4.47;;;2.50;;
61764;SDS011;50188;48.114;-1.388;2022-08-19T02:15:02;2.78;;;1.80;;
61764;SDS011;50188;48.114;-1.388;2022-08-19T02:17:28;2.33;;;2.13;;
61764;SDS011;50188;48.114;-1.388;2022-08-19T02:19:55;2.88;;;2.10;;
61764;SDS011;50188;48.114;-1.388;2022-08-19T02:22:22;2.15;;;1.85;;
61764;SDS011;50188;48.114;-1.388;2022-08-19T02:24:49;5.38;;;2.35;;
61764;SDS011;50188;48.114;-1.388;2022-08-19T02:27:15;2.55;;;2.03;;
61764;SDS011;50188;48.114;-1.388;2022-08-19T02:29:41;2.40;;;2.20;;
61764;SDS011;50188;48.114;-1.388;2022-08-19T02:32:08;2.75;;;2.15;;
61764;SDS011;50188;48.114;-1.388;2022-08-19T02:34:36;8.40;;;2.20;;
61764;SDS011;50188;48.114;-1.388;2022-08-19T02:37:02;2.72;;;2.10;;
61764;SDS011;50188;48.114;-1.388;2022-08-19T02:39:28;3.90;;;2.38;;
61764;SDS011;50188;48.114;-1.388;2022-08-19T02:41:54;2.10;;;2.00;;
61764;SDS011;50188;48.114;-1.388;2022-08-19T02:44:19;3.80;;;1.98;;
61764;SDS011;50188;48.114;-1.388;2022-08-19T02:46:46;1.95;;;1.80;;
61764;SDS011;50188;48.114;-1.388;2022-08-19T02:49:12;2.97;;;2.40;;
61764;SDS011;50188;48.114;-1.388;2022-08-19T02:51:41;4.22;;;2.83;;
61764;SDS011;50188;48.114;-1.388;2022-08-19T02:54:09;2.58;;;1.98;;
61764;SDS011;50188;48.114;-1.388;2022-08-19T02:56:37;4.03;;;2.40;;
61764;SDS011;50188;48.114;-1.388;2022-08-19T02:59:04;4.63;;;2.90;;
61764;SDS011;50188;48.114;-1.388;2022-08-19T03:01:33;2.25;;;2.13;;
61764;SDS011;50188;48.114;-1.388;2022-08-19T03:06:30;3.05;;;2.60;;
61764;SDS011;50188;48.114;-1.388;2022-08-19T03:08:57;3.95;;;2.03;;
61764;SDS011;50188;48.114;-1.388;2022-08-19T03:11:25;2.45;;;2.25;;
61764;SDS011;50188;48.114;-1.388;2022-08-19T03:13:52;6.38;;;3.03;;
61764;SDS011;50188;48.114;-1.388;2022-08-19T03:16:19;4.18;;;2.30;;
61764;SDS011;50188;48.114;-1.388;2022-08-19T03:18:47;9.38;;;2.85;;
61764;SDS011;50188;48.114;-1.388;2022-08-19T03:21:17;3.08;;;2.78;;
61764;SDS011;50188;48.114;-1.388;2022-08-19T03:23:44;6.25;;;2.28;;
61764;SDS011;50188;48.114;-1.388;2022-08-19T03:26:48;2.47;;;2.28;;
61764;SDS011;50188;48.114;-1.388;2022-08-19T03:29:16;7.38;;;3.20;;
61764;SDS011;50188;48.114;-1.388;2022-08-19T03:31:43;2.55;;;2.35;;
61764;SDS011;50188;48.114;-1.388;2022-08-19T03:34:16;4.57;;;2.50;;
61764;SDS011;50188;48.114;-1.388;2022-08-19T03:36:51;3.83;;;2.53;;
61764;SDS011;50188;48.114;-1.388;2022-08-19T03:39:17;12.35;;;3.08;;
61764;SDS011;50188;48.114;-1.388;2022-08-19T03:41:44;3.33;;;2.58;;
61764;SDS011;50188;48.114;-1.388;2022-08-19T03:44:15;3.30;;;2.92;;
61764;SDS011;50188;48.114;-1.388;2022-08-19T03:46:46;2.40;;;2.20;;
61764;SDS011;50188;48.114;-1.388;2022-08-19T03:49:14;3.17;;;2.17;;
61764;SDS011;50188;48.114;-1.388;2022-08-19T03:51:41;4.30;;;2.08;;
61764;SDS011;50188;48.114;-1.388;2022-08-19T03:54:08;3.15;;;2.85;;
61764;SDS011;50188;48.114;-1.388;2022-08-19T03:56:37;6.65;;;2.75;;
61764;SDS011;50188;48.114;-1.388;2022-08-19T03:59:04;2.97;;;2.70;;
61764;SDS011;50188;48.114;-1.388;2022-08-19T04:01:32;3.30;;;3.10;;
61764;SDS011;50188;48.114;-1.388;2022-08-19T04:03:58;2.90;;;2.58;;
61764;SDS011;50188;48.114;-1.388;2022-08-19T04:06:26;3.40;;;3.08;;
61764;SDS011;50188;48.114;-1.388;2022-08-19T04:08:54;5.10;;;3.20;;
61764;SDS011;50188;48.114;-1.388;2022-08-19T04:11:22;4.53;;;2.30;;
61764;SDS011;50188;48.114;-1.388;2022-08-19T04:14:19;2.55;;;2.35;;
61764;SDS011;50188;48.114;-1.388;2022-08-19T04:16:44;3.00;;;2.38;;
61764;SDS011;50188;48.114;-1.388;2022-08-19T04:19:11;3.17;;;2.85;;
61764;SDS011;50188;48.114;-1.388;2022-08-19T04:21:38;3.00;;;2.60;;
61764;SDS011;50188;48.114;-1.388;2022-08-19T04:24:04;3.13;;;2.35;;
61764;SDS011;50188;48.114;-1.388;2022-08-19T04:26:33;3.60;;;2.95;;
61764;SDS011;50188;48.114;-1.388;2022-08-19T04:29:01;3.20;;;3.00;;
61764;SDS011;50188;48.114;-1.388;2022-08-19T04:31:30;3.47;;;3.08;;
61764;SDS011;50188;48.114;-1.388;2022-08-19T04:34:01;3.55;;;2.65;;
61764;SDS011;50188;48.114;-1.388;2022-08-19T04:36:30;3.55;;;2.40;;
61764;SDS011;50188;48.114;-1.388;2022-08-19T04:41:45;4.38;;;2.13;;
61764;SDS011;50188;48.114;-1.388;2022-08-19T04:44:31;3.55;;;2.90;;
61764;SDS011;50188;48.114;-1.388;2022-08-19T04:46:59;3.05;;;1.92;;
61764;SDS011;50188;48.114;-1.388;2022-08-19T04:49:25;2.10;;;2.00;;
61764;SDS011;50188;48.114;-1.388;2022-08-19T04:51:59;3.03;;;2.72;;
61764;SDS011;50188;48.114;-1.388;2022-08-19T04:54:25;2.63;;;2.42;;
61764;SDS011;50188;48.114;-1.388;2022-08-19T04:56:52;2.45;;;2.30;;
61764;SDS011;50188;48.114;-1.388;2022-08-19T04:59:19;2.50;;;2.28;;
61764;SDS011;50188;48.114;-1.388;2022-08-19T05:02:12;2.90;;;2.65;;
61764;SDS011;50188;48.114;-1.388;2022-08-19T05:04:40;3.03;;;2.50;;
61764;SDS011;50188;48.114;-1.388;2022-08-19T05:07:07;2.60;;;2.40;;
61764;SDS011;50188;48.114;-1.388;2022-08-19T05:09:33;2.78;;;2.55;;
61764;SDS011;50188;48.114;-1.388;2022-08-19T05:11:59;3.35;;;2.50;;
61764;SDS011;50188;48.114;-1.388;2022-08-19T05:14:25;3.65;;;2.78;;
61764;SDS011;50188;48.114;-1.388;2022-08-19T05:16:51;2.55;;;2.38;;
61764;SDS011;50188;48.114;-1.388;2022-08-19T05:19:17;3.90;;;3.17;;
61764;SDS011;50188;48.114;-1.388;2022-08-19T05:22:03;2.17;;;2.00;;
61764;SDS011;50188;48.114;-1.388;2022-08-19T05:24:48;2.50;;;2.30;;
61764;SDS011;50188;48.114;-1.388;2022-08-19T05:27:14;2.70;;;2.55;;
61764;SDS011;50188;48.114;-1.388;2022-08-19T05:29:40;2.83;;;2.63;;
61764;SDS011;50188;48.114;-1.388;2022-08-19T05:32:06;2.92;;;2.80;;
61764;SDS011;50188;48.114;-1.388;2022-08-19T05:34:34;5.03;;;2.75;;
61764;SDS011;50188;48.114;-1.388;2022-08-19T05:37:01;2.92;;;2.72;;
61764;SDS011;50188;48.114;-1.388;2022-08-19T05:39:28;3.78;;;3.20;;
61764;SDS011;50188;48.114;-1.388;2022-08-19T05:41:56;3.58;;;3.28;;
61764;SDS011;50188;48.114;-1.388;2022-08-19T05:44:25;2.88;;;2.70;;
61764;SDS011;50188;48.114;-1.388;2022-08-19T05:46:55;3.83;;;2.97;;
61764;SDS011;50188;48.114;-1.388;2022-08-19T05:49:21;4.88;;;3.25;;
61764;SDS011;50188;48.114;-1.388;2022-08-19T05:51:48;3.67;;;3.38;;
61764;SDS011;50188;48.114;-1.388;2022-08-19T05:54:15;2.60;;;2.40;;
61764;SDS011;50188;48.114;-1.388;2022-08-19T05:56:41;5.13;;;3.15;;
61764;SDS011;50188;48.114;-1.388;2022-08-19T05:59:08;3.30;;;2.88;;
61764;SDS011;50188;48.114;-1.388;2022-08-19T06:01:40;4.68;;;3.25;;
61764;SDS011;50188;48.114;-1.388;2022-08-19T06:04:07;3.22;;;3.00;;
61764;SDS011;50188;48.114;-1.388;2022-08-19T06:06:34;3.60;;;2.83;;
61764;SDS011;50188;48.114;-1.388;2022-08-19T06:09:02;3.60;;;3.30;;
61764;SDS011;50188;48.114;-1.388;2022-08-19T06:11:34;3.90;;;3.60;;
61764;SDS011;50188;48.114;-1.388;2022-08-19T06:14:04;3.58;;;3.28;;
61764;SDS011;50188;48.114;-1.388;2022-08-19T06:16:34;4.65;;;3.63;;
61764;SDS011;50188;48.114;-1.388;2022-08-19T06:19:03;3.70;;;3.50;;
61764;SDS011;50188;48.114;-1.388;2022-08-19T06:21:32;3.38;;;3.08;;
61764;SDS011;50188;48.114;-1.388;2022-08-19T06:23:59;3.63;;;3.38;;
61764;SDS011;50188;48.114;-1.388;2022-08-19T06:26:25;5.32;;;3.40;;
61764;SDS011;50188;48.114;-1.388;2022-08-19T06:28:51;4.85;;;4.00;;
61764;SDS011;50188;48.114;-1.388;2022-08-19T06:31:18;6.05;;;3.60;;
61764;SDS011;50188;48.114;-1.388;2022-08-19T06:36:17;3.80;;;3.47;;
61764;SDS011;50188;48.114;-1.388;2022-08-19T06:38:44;3.45;;;3.15;;
61764;SDS011;50188;48.114;-1.388;2022-08-19T06:41:10;3.83;;;3.53;;
61764;SDS011;50188;48.114;-1.388;2022-08-19T06:43:36;5.00;;;4.00;;
61764;SDS011;50188;48.114;-1.388;2022-08-19T06:46:02;3.55;;;3.35;;
61764;SDS011;50188;48.114;-1.388;2022-08-19T06:48:29;4.75;;;4.25;;
61764;SDS011;50188;48.114;-1.388;2022-08-19T06:50:55;3.78;;;3.40;;
61764;SDS011;50188;48.114;-1.388;2022-08-19T06:53:21;4.03;;;3.65;;
61764;SDS011;50188;48.114;-1.388;2022-08-19T06:55:47;5.00;;;3.88;;
61764;SDS011;50188;48.114;-1.388;2022-08-19T06:58:25;4.15;;;3.85;;
61764;SDS011;50188;48.114;-1.388;2022-08-19T07:00:51;4.00;;;3.58;;
61764;SDS011;50188;48.114;-1.388;2022-08-19T07:03:17;4.70;;;4.22;;
61764;SDS011;50188;48.114;-1.388;2022-08-19T07:05:43;3.83;;;3.53;;
61764;SDS011;50188;48.114;-1.388;2022-08-19T07:08:09;3.67;;;3.38;;
61764;SDS011;50188;48.114;-1.388;2022-08-19T07:10:35;4.55;;;3.92;;
61764;SDS011;50188;48.114;-1.388;2022-08-19T07:13:01;4.15;;;3.80;;
61764;SDS011;50188;48.114;-1.388;2022-08-19T07:15:28;3.80;;;3.60;;
61764;SDS011;50188;48.114;-1.388;2022-08-19T07:17:54;4.95;;;4.28;;
61764;SDS011;50188;48.114;-1.388;2022-08-19T07:20:20;5.32;;;3.70;;
61764;SDS011;50188;48.114;-1.388;2022-08-19T07:22:45;7.47;;;4.10;;
61764;SDS011;50188;48.114;-1.388;2022-08-19T07:25:12;5.22;;;3.88;;
61764;SDS011;50188;48.114;-1.388;2022-08-19T07:27:38;3.85;;;3.55;;
61764;SDS011;50188;48.114;-1.388;2022-08-19T07:30:04;5.70;;;4.22;;
61764;SDS011;50188;48.114;-1.388;2022-08-19T07:32:30;6.22;;;4.00;;
61764;SDS011;50188;48.114;-1.388;2022-08-19T07:34:56;4.60;;;3.90;;
61764;SDS011;50188;48.114;-1.388;2022-08-19T07:37:22;5.85;;;4.18;;
61764;SDS011;50188;48.114;-1.388;2022-08-19T07:39:51;5.78;;;4.03;;
61764;SDS011;50188;48.114;-1.388;2022-08-19T07:42:17;3.65;;;3.40;;
61764;SDS011;50188;48.114;-1.388;2022-08-19T07:44:45;5.13;;;3.33;;
61764;SDS011;50188;48.114;-1.388;2022-08-19T07:47:11;5.35;;;3.60;;
61764;SDS011;50188;48.114;-1.388;2022-08-19T07:49:38;4.90;;;3.40;;
61764;SDS011;50188;48.114;-1.388;2022-08-19T07:52:05;4.65;;;3.83;;
61764;SDS011;50188;48.114;-1.388;2022-08-19T07:54:33;5.72;;;3.38;;
61764;SDS011;50188;48.114;-1.388;2022-08-19T07:57:00;4.53;;;3.65;;
61764;SDS011;50188;48.114;-1.388;2022-08-19T07:59:27;4.68;;;4.07;;
61764;SDS011;50188;48.114;-1.388;2022-08-19T08:01:54;3.30;;;3.00;;
61764;SDS011;50188;48.114;-1.388;2022-08-19T08:04:20;3.47;;;3.17;;
61764;SDS011;50188;48.114;-1.388;2022-08-19T08:07:06;6.40;;;4.00;;
61764;SDS011;50188;48.114;-1.388;2022-08-19T08:09:52;6.38;;;4.43;;
61764;SDS011;50188;48.114;-1.388;2022-08-19T08:12:23;8.45;;;3.67;;
61764;SDS011;50188;48.114;-1.388;2022-08-19T08:14:55;5.88;;;3.63;;
61764;SDS011;50188;48.114;-1.388;2022-08-19T08:17:25;4.88;;;3.42;;
61764;SDS011;50188;48.114;-1.388;2022-08-19T08:19:52;6.97;;;3.90;;
61764;SDS011;50188;48.114;-1.388;2022-08-19T08:22:20;4.22;;;3.70;;
61764;SDS011;50188;48.114;-1.388;2022-08-19T08:25:08;4.88;;;3.55;;
61764;SDS011;50188;48.114;-1.388;2022-08-19T08:27:40;3.88;;;3.42;;
61764;SDS011;50188;48.114;-1.388;2022-08-19T08:30:09;4.82;;;3.22;;
61764;SDS011;50188;48.114;-1.388;2022-08-19T08:32:37;6.38;;;3.83;;
61764;SDS011;50188;48.114;-1.388;2022-08-19T08:35:08;7.47;;;4.55;;
61764;SDS011;50188;48.114;-1.388;2022-08-19T08:37:37;7.15;;;4.30;;
61764;SDS011;50188;48.114;-1.388;2022-08-19T08:40:14;7.22;;;4.28;;
61764;SDS011;50188;48.114;-1.388;2022-08-19T08:43:03;3.33;;;3.00;;
61764;SDS011;50188;48.114;-1.388;2022-08-19T08:45:35;4.53;;;4.13;;
61764;SDS011;50188;48.114;-1.388;2022-08-19T08:48:19;5.55;;;3.35;;
61764;SDS011;50188;48.114;-1.388;2022-08-19T08:50:50;6.70;;;4.00;;
61764;SDS011;50188;48.114;-1.388;2022-08-19T08:53:19;6.25;;;4.28;;
61764;SDS011;50188;48.114;-1.388;2022-08-19T08:55:49;5.53;;;2.97;;
61764;SDS011;50188;48.114;-1.388;2022-08-19T08:58:17;3.85;;;2.97;;
61764;SDS011;50188;48.114;-1.388;2022-08-19T09:00:54;3.08;;;2.80;;
61764;SDS011;50188;48.114;-1.388;2022-08-19T09:03:21;4.35;;;2.58;;
61764;SDS011;50188;48.114;-1.388;2022-08-19T09:08:33;5.15;;;3.20;;
61764;SDS011;50188;48.114;-1.388;2022-08-19T09:11:30;2.75;;;2.42;;
61764;SDS011;50188;48.114;-1.388;2022-08-19T09:16:59;3.22;;;2.35;;
61764;SDS011;50188;48.114;-1.388;2022-08-19T09:19:36;6.07;;;3.17;;
61764;SDS011;50188;48.114;-1.388;2022-08-19T09:22:15;3.55;;;2.55;;
61764;SDS011;50188;48.114;-1.388;2022-08-19T09:24:41;5.30;;;3.10;;
61764;SDS011;50188;48.114;-1.388;2022-08-19T09:27:07;16.55;;;3.42;;
61764;SDS011;50188;48.114;-1.388;2022-08-19T09:29:33;4.90;;;2.88;;
61764;SDS011;50188;48.114;-1.388;2022-08-19T09:31:59;3.05;;;2.78;;
61764;SDS011;50188;48.114;-1.388;2022-08-19T09:34:25;4.05;;;2.85;;
61764;SDS011;50188;48.114;-1.388;2022-08-19T09:36:54;5.28;;;2.83;;
61764;SDS011;50188;48.114;-1.388;2022-08-19T09:39:23;3.30;;;2.30;;
61764;SDS011;50188;48.114;-1.388;2022-08-19T09:41:49;4.75;;;2.05;;
61764;SDS011;50188;48.114;-1.388;2022-08-19T09:44:22;3.30;;;2.25;;
61764;SDS011;50188;48.114;-1.388;2022-08-19T09:46:48;4.15;;;2.85;;
61764;SDS011;50188;48.114;-1.388;2022-08-19T09:49:16;2.30;;;1.92;;
61764;SDS011;50188;48.114;-1.388;2022-08-19T09:51:44;6.23;;;2.57;;
61764;SDS011;50188;48.114;-1.388;2022-08-19T09:54:14;3.55;;;2.45;;
61764;SDS011;50188;48.114;-1.388;2022-08-19T09:56:39;3.10;;;2.30;;
61764;SDS011;50188;48.114;-1.388;2022-08-19T09:59:05;4.93;;;2.78;;
61764;SDS011;50188;48.114;-1.388;2022-08-19T10:01:32;4.03;;;2.65;;
61764;SDS011;50188;48.114;-1.388;2022-08-19T10:03:58;3.42;;;2.60;;
61764;SDS011;50188;48.114;-1.388;2022-08-19T10:06:27;4.68;;;2.50;;
61764;SDS011;50188;48.114;-1.388;2022-08-19T10:08:58;3.03;;;2.05;;
61764;SDS011;50188;48.114;-1.388;2022-08-19T10:11:25;4.07;;;2.28;;
61764;SDS011;50188;48.114;-1.388;2022-08-19T10:13:51;5.20;;;2.63;;
61764;SDS011;50188;48.114;-1.388;2022-08-19T10:16:18;5.80;;;2.72;;
61764;SDS011;50188;48.114;-1.388;2022-08-19T10:18:47;4.32;;;3.17;;
61764;SDS011;50188;48.114;-1.388;2022-08-19T10:21:20;2.80;;;2.38;;
61764;SDS011;50188;48.114;-1.388;2022-08-19T10:23:48;3.38;;;2.42;;
61764;SDS011;50188;48.114;-1.388;2022-08-19T10:26:19;2.03;;;1.90;;
61764;SDS011;50188;48.114;-1.388;2022-08-19T10:28:48;4.63;;;2.10;;
61764;SDS011;50188;48.114;-1.388;2022-08-19T10:31:19;3.50;;;1.90;;
61764;SDS011;50188;48.114;-1.388;2022-08-19T10:33:48;3.42;;;1.95;;
61764;SDS011;50188;48.114;-1.388;2022-08-19T10:36:17;5.75;;;2.25;;
61764;SDS011;50188;48.114;-1.388;2022-08-19T10:38:45;4.72;;;1.83;;
61764;SDS011;50188;48.114;-1.388;2022-08-19T10:41:16;5.80;;;2.25;;
61764;SDS011;50188;48.114;-1.388;2022-08-19T10:43:44;1.85;;;1.75;;
61764;SDS011;50188;48.114;-1.388;2022-08-19T10:46:11;5.93;;;2.55;;
61764;SDS011;50188;48.114;-1.388;2022-08-19T10:48:39;3.83;;;1.85;;
61764;SDS011;50188;48.114;-1.388;2022-08-19T10:51:06;4.93;;;1.88;;
61764;SDS011;50188;48.114;-1.388;2022-08-19T10:53:52;3.58;;;2.42;;
61764;SDS011;50188;48.114;-1.388;2022-08-19T10:56:19;5.85;;;1.83;;
61764;SDS011;50188;48.114;-1.388;2022-08-19T10:59:05;2.85;;;1.58;;
61764;SDS011;50188;48.114;-1.388;2022-08-19T11:01:31;2.15;;;1.40;;
61764;SDS011;50188;48.114;-1.388;2022-08-19T11:04:00;1.17;;;1.05;;
61764;SDS011;50188;48.114;-1.388;2022-08-19T11:06:26;2.17;;;1.38;;
61764;SDS011;50188;48.114;-1.388;2022-08-19T11:08:53;3.05;;;1.20;;
61764;SDS011;50188;48.114;-1.388;2022-08-19T11:11:19;1.95;;;1.23;;
61764;SDS011;50188;48.114;-1.388;2022-08-19T11:13:46;1.52;;;0.95;;
61764;SDS011;50188;48.114;-1.388;2022-08-19T11:16:14;1.80;;;0.93;;
61764;SDS011;50188;48.114;-1.388;2022-08-19T11:18:43;3.67;;;1.40;;
61764;SDS011;50188;48.114;-1.388;2022-08-19T11:21:15;2.80;;;1.13;;
61764;SDS011;50188;48.114;-1.388;2022-08-19T11:23:53;4.53;;;1.77;;
61764;SDS011;50188;48.114;-1.388;2022-08-19T11:26:22;4.50;;;1.00;;
61764;SDS011;50188;48.114;-1.388;2022-08-19T11:28:49;2.92;;;1.45;;
61764;SDS011;50188;48.114;-1.388;2022-08-19T11:31:18;1.77;;;1.15;;
61764;SDS011;50188;48.114;-1.388;2022-08-19T11:33:46;3.70;;;1.60;;
61764;SDS011;50188;48.114;-1.388;2022-08-19T11:36:15;3.30;;;1.60;;
61764;SDS011;50188;48.114;-1.388;2022-08-19T11:38:41;2.08;;;0.93;;
61764;SDS011;50188;48.114;-1.388;2022-08-19T11:41:08;4.47;;;2.33;;
61764;SDS011;50188;48.114;-1.388;2022-08-19T11:43:34;3.90;;;1.23;;
61764;SDS011;50188;48.114;-1.388;2022-08-19T11:46:03;3.78;;;2.10;;
61764;SDS011;50188;48.114;-1.388;2022-08-19T11:48:31;5.22;;;1.52;;
61764;SDS011;50188;48.114;-1.388;2022-08-19T11:50:58;1.30;;;1.13;;
61764;SDS011;50188;48.114;-1.388;2022-08-19T11:53:24;2.22;;;1.50;;
61764;SDS011;50188;48.114;-1.388;2022-08-19T11:55:50;3.15;;;1.58;;
61764;SDS011;50188;48.114;-1.388;2022-08-19T11:58:20;2.38;;;1.50;;
61764;SDS011;50188;48.114;-1.388;2022-08-19T12:00:47;1.30;;;0.85;;
61764;SDS011;50188;48.114;-1.388;2022-08-19T12:03:13;2.17;;;1.35;;
61764;SDS011;50188;48.114;-1.388;2022-08-19T12:05:39;1.20;;;0.88;;
61764;SDS011;50188;48.114;-1.388;2022-08-19T12:08:06;4.95;;;2.00;;
61764;SDS011;50188;48.114;-1.388;2022-08-19T12:10:33;3.92;;;1.65;;
61764;SDS011;50188;48.114;-1.388;2022-08-19T12:12:59;3.63;;;1.20;;
61764;SDS011;50188;48.114;-1.388;2022-08-19T12:15:26;2.45;;;1.17;;
61764;SDS011;50188;48.114;-1.388;2022-08-19T12:17:54;3.72;;;1.10;;
61764;SDS011;50188;48.114;-1.388;2022-08-19T12:20:22;4.00;;;1.42;;
61764;SDS011;50188;48.114;-1.388;2022-08-19T12:22:49;1.30;;;1.05;;
61764;SDS011;50188;48.114;-1.388;2022-08-19T12:25:15;1.92;;;1.50;;
61764;SDS011;50188;48.114;-1.388;2022-08-19T12:27:41;3.00;;;1.20;;
61764;SDS011;50188;48.114;-1.388;2022-08-19T12:30:08;3.03;;;1.23;;
61764;SDS011;50188;48.114;-1.388;2022-08-19T12:32:36;1.40;;;1.08;;
61764;SDS011;50188;48.114;-1.388;2022-08-19T12:35:03;2.10;;;1.08;;
61764;SDS011;50188;48.114;-1.388;2022-08-19T12:37:29;4.18;;;1.30;;
61764;SDS011;50188;48.114;-1.388;2022-08-19T12:39:56;1.10;;;0.77;;
61764;SDS011;50188;48.114;-1.388;2022-08-19T12:42:23;3.40;;;1.67;;
61764;SDS011;50188;48.114;-1.388;2022-08-19T12:44:49;1.30;;;0.93;;
61764;SDS011;50188;48.114;-1.388;2022-08-19T12:47:16;1.15;;;1.05;;
61764;SDS011;50188;48.114;-1.388;2022-08-19T12:49:43;1.83;;;1.25;;
61764;SDS011;50188;48.114;-1.388;2022-08-19T12:52:09;4.05;;;1.55;;
61764;SDS011;50188;48.114;-1.388;2022-08-19T12:54:35;2.13;;;1.25;;
61764;SDS011;50188;48.114;-1.388;2022-08-19T12:57:05;1.67;;;1.10;;
61764;SDS011;50188;48.114;-1.388;2022-08-19T12:59:33;4.72;;;1.42;;
61764;SDS011;50188;48.114;-1.388;2022-08-19T13:02:02;1.15;;;1.00;;
61764;SDS011;50188;48.114;-1.388;2022-08-19T13:04:31;6.25;;;1.00;;
61764;SDS011;50188;48.114;-1.388;2022-08-19T13:09:25;1.65;;;0.80;;
61764;SDS011;50188;48.114;-1.388;2022-08-19T13:11:51;3.88;;;0.98;;
61764;SDS011;50188;48.114;-1.388;2022-08-19T13:14:17;1.42;;;1.00;;
61764;SDS011;50188;48.114;-1.388;2022-08-19T13:16:43;4.55;;;2.65;;
61764;SDS011;50188;48.114;-1.388;2022-08-19T13:19:09;2.80;;;1.52;;
61764;SDS011;50188;48.114;-1.388;2022-08-19T13:21:37;1.92;;;1.15;;
61764;SDS011;50188;48.114;-1.388;2022-08-19T13:24:03;5.40;;;1.95;;
61764;SDS011;50188;48.114;-1.388;2022-08-19T13:26:29;4.88;;;1.48;;
61764;SDS011;50188;48.114;-1.388;2022-08-19T13:28:58;2.53;;;1.23;;
61764;SDS011;50188;48.114;-1.388;2022-08-19T13:31:44;3.05;;;1.52;;
61764;SDS011;50188;48.114;-1.388;2022-08-19T13:34:33;2.95;;;1.30;;
61764;SDS011;50188;48.114;-1.388;2022-08-19T13:37:00;2.72;;;1.45;;
61764;SDS011;50188;48.114;-1.388;2022-08-19T13:39:29;4.13;;;1.60;;
61764;SDS011;50188;48.114;-1.388;2022-08-19T13:41:57;2.92;;;1.25;;
61764;SDS011;50188;48.114;-1.388;2022-08-19T13:44:25;1.98;;;1.10;;
61764;SDS011;50188;48.114;-1.388;2022-08-19T13:46:54;3.47;;;1.30;;
61764;SDS011;50188;48.114;-1.388;2022-08-19T13:49:25;1.65;;;1.50;;
61764;SDS011;50188;48.114;-1.388;2022-08-19T13:51:55;4.22;;;1.45;;
61764;SDS011;50188;48.114;-1.388;2022-08-19T13:54:21;2.97;;;1.80;;
61764;SDS011;50188;48.114;-1.388;2022-08-19T13:56:46;1.65;;;1.52;;
61764;SDS011;50188;48.114;-1.388;2022-08-19T13:59:13;1.63;;;1.42;;
61764;SDS011;50188;48.114;-1.388;2022-08-19T14:01:39;1.40;;;1.30;;
61764;SDS011;50188;48.114;-1.388;2022-08-19T14:04:06;1.23;;;1.13;;
61764;SDS011;50188;48.114;-1.388;2022-08-19T14:06:33;1.30;;;1.10;;
61764;SDS011;50188;48.114;-1.388;2022-08-19T14:08:59;5.15;;;2.35;;
61764;SDS011;50188;48.114;-1.388;2022-08-19T14:17:39;1.38;;;1.10;;
61764;SDS011;50188;48.114;-1.388;2022-08-19T14:20:07;0.88;;;0.73;;
61764;SDS011;50188;48.114;-1.388;2022-08-19T14:22:36;2.00;;;0.40;;
61764;SDS011;50188;48.114;-1.388;2022-08-19T14:25:03;1.48;;;1.00;;
61764;SDS011;50188;48.114;-1.388;2022-08-19T14:27:33;0.80;;;0.80;;
61764;SDS011;50188;48.114;-1.388;2022-08-19T14:29:59;3.72;;;3.00;;
61764;SDS011;50188;48.114;-1.388;2022-08-19T14:32:25;2.28;;;2.03;;
61764;SDS011;50188;48.114;-1.388;2022-08-19T14:34:51;6.13;;;1.60;;
61764;SDS011;50188;48.114;-1.388;2022-08-19T14:37:18;1.27;;;1.20;;
61764;SDS011;50188;48.114;-1.388;2022-08-19T14:39:43;4.25;;;2.03;;
61764;SDS011;50188;48.114;-1.388;2022-08-19T14:42:10;2.40;;;1.88;;
61764;SDS011;50188;48.114;-1.388;2022-08-19T14:44:36;2.72;;;1.92;;
61764;SDS011;50188;48.114;-1.388;2022-08-19T14:47:02;1.48;;;1.38;;
61764;SDS011;50188;48.114;-1.388;2022-08-19T14:49:28;3.33;;;1.70;;
61764;SDS011;50188;48.114;-1.388;2022-08-19T14:51:53;1.15;;;1.08;;
61764;SDS011;50188;48.114;-1.388;2022-08-19T14:54:19;0.50;;;0.50;;
61764;SDS011;50188;48.114;-1.388;2022-08-19T14:56:46;1.15;;;0.32;;
61764;SDS011;50188;48.114;-1.388;2022-08-19T14:59:12;1.08;;;0.98;;
61764;SDS011;50188;48.114;-1.388;2022-08-19T15:01:38;0.57;;;0.55;;
61764;SDS011;50188;48.114;-1.388;2022-08-19T15:04:03;0.30;;;0.30;;
61764;SDS011;50188;48.114;-1.388;2022-08-19T15:06:29;0.70;;;0.70;;